createdAt,value
2022-09-18T00:00:03.975Z,9.7
2022-09-18T00:01:20.271Z,9.7
2022-09-18T00:02:36.561Z,9.7
2022-09-18T00:03:52.840Z,9.7
2022-09-18T00:05:09.132Z,9.7
2022-09-18T00:06:25.435Z,9.8
2022-09-18T00:07:41.731Z,9.7
2022-09-18T00:08:58.019Z,9.7
2022-09-18T00:10:14.307Z,9.7
2022-09-18T00:11:30.611Z,9.7
2022-09-18T00:12:45.916Z,9.7
2022-09-18T00:14:02.213Z,9.7
2022-09-18T00:15:18.513Z,9.7
2022-09-18T00:16:34.798Z,9.6
2022-09-18T00:17:51.089Z,9.6
2022-09-18T00:19:07.386Z,9.6
2022-09-18T00:20:23.674Z,9.7
2022-09-18T00:21:39.973Z,9.7
2022-09-18T00:22:56.271Z,9.7
2022-09-18T00:24:12.559Z,9.7
2022-09-18T00:25:28.862Z,9.7
2022-09-18T00:26:45.148Z,9.7
2022-09-18T00:28:01.455Z,9.7
2022-09-18T00:29:16.765Z,9.7
2022-09-18T00:30:33.044Z,9.7
2022-09-18T00:31:49.349Z,9.7
2022-09-18T00:33:05.636Z,9.8
2022-09-18T00:34:21.930Z,9.8
2022-09-18T00:35:38.224Z,9.8
2022-09-18T00:36:54.520Z,9.8
2022-09-18T00:38:10.815Z,9.8
2022-09-18T00:39:27.116Z,9.8
2022-09-18T00:40:43.401Z,9.7
2022-09-18T00:41:59.703Z,9.7
2022-09-18T00:43:15.991Z,9.8
2022-09-18T00:44:32.279Z,9.7
2022-09-18T00:45:47.595Z,9.7
2022-09-18T00:47:03.901Z,9.7
2022-09-18T00:48:20.180Z,9.7
2022-09-18T00:49:36.475Z,9.7
2022-09-18T00:50:52.766Z,9.7
2022-09-18T00:52:09.058Z,9.7
2022-09-18T00:53:25.355Z,9.7
2022-09-18T00:54:41.649Z,9.7
2022-09-18T00:55:57.947Z,9.7
2022-09-18T00:57:14.243Z,9.7
2022-09-18T00:58:30.542Z,9.7
2022-09-18T00:59:46.828Z,9.7
2022-09-18T01:01:03.116Z,9.7
2022-09-18T01:02:18.426Z,9.6
2022-09-18T01:03:34.723Z,9.6
2022-09-18T01:04:51.023Z,9.6
2022-09-18T01:06:07.328Z,9.7
2022-09-18T01:07:23.605Z,9.7
2022-09-18T01:08:39.899Z,9.7
2022-09-18T01:09:56.192Z,9.7
2022-09-18T01:11:12.493Z,9.7
2022-09-18T01:12:28.779Z,9.7
2022-09-18T01:13:45.091Z,9.7
2022-09-18T01:15:01.369Z,9.7
2022-09-18T01:16:17.675Z,9.7
2022-09-18T01:17:33.964Z,9.8
2022-09-18T01:18:49.265Z,9.8
2022-09-18T01:20:05.560Z,9.8
2022-09-18T01:21:21.863Z,9.8
2022-09-18T01:22:38.151Z,9.8
2022-09-18T01:23:54.460Z,9.8
2022-09-18T01:25:10.739Z,9.8
2022-09-18T01:26:27.038Z,9.8
2022-09-18T01:27:43.331Z,9.8
2022-09-18T01:28:59.634Z,9.8
2022-09-18T01:30:15.924Z,9.8
2022-09-18T01:31:32.215Z,9.8
2022-09-18T01:32:48.504Z,9.8
2022-09-18T01:34:04.798Z,9.8
2022-09-18T01:35:20.119Z,9.8
2022-09-18T01:36:36.405Z,9.8
2022-09-18T01:37:52.702Z,9.8
2022-09-18T01:39:08.994Z,9.8
2022-09-18T01:40:25.290Z,9.8
2022-09-18T01:41:41.583Z,9.8
2022-09-18T01:42:57.882Z,9.7
2022-09-18T01:44:14.000Z,9.7
2022-09-18T01:45:30.475Z,9.8
2022-09-18T01:46:46.765Z,9.8
2022-09-18T01:48:03.052Z,9.8
2022-09-18T01:49:19.344Z,9.8
2022-09-18T01:50:35.637Z,9.8
2022-09-18T01:51:50.944Z,9.8
2022-09-18T01:53:07.250Z,9.8
2022-09-18T01:54:23.552Z,9.7
2022-09-18T01:55:39.830Z,9.7
2022-09-18T01:56:56.122Z,9.8
2022-09-18T01:58:12.434Z,9.8
2022-09-18T01:59:28.709Z,9.8
2022-09-18T02:00:45.004Z,9.7
2022-09-18T02:02:01.302Z,9.8
2022-09-18T02:03:17.607Z,9.8
2022-09-18T02:04:33.891Z,9.8
2022-09-18T02:05:50.195Z,9.7
2022-09-18T02:07:06.488Z,9.8
2022-09-18T02:08:21.796Z,9.7
2022-09-18T02:09:38.091Z,9.7
2022-09-18T02:10:54.379Z,9.8
2022-09-18T02:12:10.000Z,9.8
2022-09-18T02:13:26.963Z,9.8
2022-09-18T02:14:43.270Z,9.7
2022-09-18T02:15:59.547Z,9.8
2022-09-18T02:17:15.851Z,9.7
2022-09-18T02:18:32.148Z,9.8
2022-09-18T02:19:48.440Z,9.7
2022-09-18T02:21:04.735Z,9.7
2022-09-18T02:22:21.018Z,9.7
2022-09-18T02:23:37.312Z,9.7
2022-09-18T02:24:52.623Z,9.7
2022-09-18T02:26:08.928Z,9.8
2022-09-18T02:27:25.228Z,9.7
2022-09-18T02:28:41.521Z,9.7
2022-09-18T02:29:57.818Z,9.8
2022-09-18T02:31:13.120Z,9.7
2022-09-18T02:32:29.419Z,9.7
2022-09-18T02:33:45.711Z,9.7
2022-09-18T02:35:02.008Z,9.7
2022-09-18T02:37:34.596Z,9.7
2022-09-18T02:38:50.894Z,9.7
2022-09-18T02:40:07.189Z,9.7
2022-09-18T02:41:23.473Z,9.7
2022-09-18T02:42:39.762Z,9.7
2022-09-18T02:43:56.063Z,9.7
2022-09-18T02:45:12.360Z,9.7
2022-09-18T02:46:28.653Z,9.7
2022-09-18T02:47:43.951Z,9.7
2022-09-18T02:49:00.247Z,9.7
2022-09-18T02:50:16.554Z,9.7
2022-09-18T02:51:32.843Z,9.7
2022-09-18T02:52:49.148Z,9.7
2022-09-18T02:54:05.432Z,9.7
2022-09-18T02:55:21.731Z,9.7
2022-09-18T02:56:38.029Z,9.7
2022-09-18T02:57:54.310Z,9.8
2022-09-18T02:59:10.600Z,9.8
2022-09-18T03:00:26.902Z,9.7
2022-09-18T03:01:43.192Z,9.7
2022-09-18T03:02:59.483Z,9.7
2022-09-18T03:04:14.800Z,9.7
2022-09-18T03:05:31.088Z,9.7
2022-09-18T03:06:47.378Z,9.7
2022-09-18T03:08:03.681Z,9.7
2022-09-18T03:09:19.980Z,9.7
2022-09-18T03:10:36.273Z,9.8
2022-09-18T03:11:52.564Z,9.8
2022-09-18T03:13:08.864Z,9.8
2022-09-18T03:14:25.159Z,9.8
2022-09-18T03:15:41.444Z,9.8
2022-09-18T03:16:57.734Z,9.8
2022-09-18T03:18:14.043Z,9.8
2022-09-18T03:19:30.329Z,9.8
2022-09-18T03:22:01.943Z,9.7
2022-09-18T03:23:18.227Z,9.8
2022-09-18T03:24:34.523Z,9.8
2022-09-18T03:25:50.812Z,9.8
2022-09-18T03:27:07.114Z,9.8
2022-09-18T03:28:23.403Z,9.8
2022-09-18T03:29:39.693Z,9.8
2022-09-18T03:30:55.988Z,9.8
2022-09-18T03:32:12.279Z,9.8
2022-09-18T03:33:28.575Z,9.7
2022-09-18T03:34:44.879Z,9.8
2022-09-18T03:36:01.164Z,9.8
2022-09-18T03:37:16.479Z,9.8
2022-09-18T03:38:32.786Z,9.8
2022-09-18T03:39:49.060Z,9.8
2022-09-18T03:41:05.373Z,9.8
2022-09-18T03:42:21.655Z,9.8
2022-09-18T03:43:37.958Z,9.8
2022-09-18T03:44:54.238Z,9.8
2022-09-18T03:46:10.530Z,9.7
2022-09-18T03:47:26.827Z,9.7
2022-09-18T03:48:43.125Z,9.7
2022-09-18T03:49:59.418Z,9.7
2022-09-18T03:51:15.706Z,9.7
2022-09-18T03:52:32.002Z,9.7
2022-09-18T03:53:47.309Z,9.7
2022-09-18T03:55:03.617Z,9.6
2022-09-18T03:56:19.918Z,9.6
2022-09-18T03:57:36.202Z,9.6
2022-09-18T03:58:52.497Z,9.6
2022-09-18T04:00:08.790Z,9.6
2022-09-18T04:01:25.074Z,9.5
2022-09-18T04:02:41.376Z,9.5
2022-09-18T04:03:57.679Z,9.5
2022-09-18T04:05:13.971Z,9.5
2022-09-18T04:06:30.267Z,9.4
2022-09-18T04:07:46.550Z,9.4
2022-09-18T04:09:02.840Z,9.4
2022-09-18T04:10:18.153Z,9.4
2022-09-18T04:11:34.449Z,9.4
2022-09-18T04:12:50.737Z,9.4
2022-09-18T04:14:07.033Z,9.4
2022-09-18T04:15:23.332Z,9.4
2022-09-18T04:16:39.622Z,9.5
2022-09-18T04:17:55.923Z,9.5
2022-09-18T04:19:12.219Z,9.4
2022-09-18T04:20:28.446Z,9.5
2022-09-18T04:21:44.751Z,9.5
2022-09-18T04:23:01.051Z,9.4
2022-09-18T04:24:17.332Z,9.5
2022-09-18T04:25:33.578Z,9.4
2022-09-18T04:26:48.837Z,9.4
2022-09-18T04:28:05.077Z,9.4
2022-09-18T04:29:21.319Z,9.4
2022-09-18T04:30:37.616Z,9.5
2022-09-18T04:31:53.908Z,9.5
2022-09-18T04:33:10.000Z,9.5
2022-09-18T04:34:26.395Z,9.4
2022-09-18T04:35:42.647Z,9.4
2022-09-18T04:36:58.935Z,9.5
2022-09-18T04:38:15.187Z,9.5
2022-09-18T04:39:31.429Z,9.5
2022-09-18T04:40:47.664Z,9.5
2022-09-18T04:42:03.902Z,9.4
2022-09-18T04:43:19.164Z,9.5
2022-09-18T04:44:35.405Z,9.5
2022-09-18T04:45:51.637Z,9.5
2022-09-18T04:47:07.877Z,9.5
2022-09-18T04:48:24.114Z,9.5
2022-09-18T04:49:40.355Z,9.7
2022-09-18T04:50:56.607Z,9.7
2022-09-18T04:52:12.838Z,9.7
2022-09-18T04:53:29.080Z,9.7
2022-09-18T04:54:45.321Z,9.6
2022-09-18T04:56:01.558Z,9.7
2022-09-18T04:57:17.804Z,9.7
2022-09-18T04:58:34.042Z,9.6
2022-09-18T04:59:49.300Z,9.6
2022-09-18T05:01:05.535Z,9.7
2022-09-18T05:02:21.786Z,9.7
2022-09-18T05:03:38.012Z,9.7
2022-09-18T05:04:54.250Z,9.7
2022-09-18T05:06:10.493Z,9.7
2022-09-18T05:07:26.745Z,9.7
2022-09-18T05:08:42.990Z,9.8
2022-09-18T05:09:59.225Z,9.8
2022-09-18T05:11:15.469Z,9.8
2022-09-18T05:12:31.702Z,9.7
2022-09-18T05:13:47.936Z,9.8
2022-09-18T05:15:04.174Z,9.8
2022-09-18T05:16:19.433Z,9.8
2022-09-18T05:17:35.679Z,9.8
2022-09-18T05:18:51.918Z,9.9
2022-09-18T05:20:08.159Z,9.9
2022-09-18T05:21:24.389Z,9.9
2022-09-18T05:22:40.643Z,9.9
2022-09-18T05:23:56.868Z,9.9
2022-09-18T05:25:13.114Z,9.9
2022-09-18T05:26:29.348Z,9.9
2022-09-18T05:27:45.595Z,9.9
2022-09-18T05:29:01.832Z,9.9
2022-09-18T05:30:18.073Z,9.9
2022-09-18T05:31:34.306Z,10
2022-09-18T05:32:49.574Z,10
2022-09-18T05:34:05.800Z,10
2022-09-18T05:35:22.046Z,10
2022-09-18T05:36:38.282Z,10
2022-09-18T05:37:54.524Z,10
2022-09-18T05:39:10.761Z,10
2022-09-18T05:40:27.005Z,10
2022-09-18T05:41:43.241Z,10.1
2022-09-18T05:42:59.490Z,10.1
2022-09-18T05:44:15.727Z,10.1
2022-09-18T05:45:31.958Z,10.1
2022-09-18T05:46:48.209Z,10.1
2022-09-18T05:48:04.447Z,10.1
2022-09-18T05:49:19.701Z,10.1
2022-09-18T05:50:35.946Z,10.1
2022-09-18T05:51:52.181Z,10.1
2022-09-18T05:53:08.419Z,10.1
2022-09-18T05:54:24.666Z,10.2
2022-09-18T05:55:40.911Z,10.2
2022-09-18T05:56:57.135Z,10.2
2022-09-18T05:58:13.375Z,10.2
2022-09-18T05:59:29.618Z,10.2
2022-09-18T06:00:45.854Z,10.2
2022-09-18T06:02:02.106Z,10.3
2022-09-18T06:03:18.341Z,10.2
2022-09-18T06:04:34.576Z,10.2
2022-09-18T06:05:49.835Z,10.3
2022-09-18T06:07:06.069Z,10.2
2022-09-18T06:08:22.311Z,10.2
2022-09-18T06:09:38.549Z,10.2
2022-09-18T06:10:54.797Z,10.2
2022-09-18T06:12:11.042Z,10.2
2022-09-18T06:13:27.283Z,10.3
2022-09-18T06:14:43.515Z,10.3
2022-09-18T06:15:59.753Z,10.3
2022-09-18T06:17:15.989Z,10.3
2022-09-18T06:18:32.238Z,10.3
2022-09-18T06:19:48.465Z,10.2
2022-09-18T06:21:04.705Z,10.3
2022-09-18T06:22:19.976Z,10.3
2022-09-18T06:23:36.214Z,10.3
2022-09-18T06:24:52.454Z,10.3
2022-09-18T06:26:08.684Z,10.4
2022-09-18T06:27:24.921Z,10.4
2022-09-18T06:28:41.176Z,10.4
2022-09-18T06:29:57.409Z,10.4
2022-09-18T06:31:13.649Z,10.4
2022-09-18T06:32:29.885Z,10.5
2022-09-18T06:33:46.128Z,10.5
2022-09-18T06:35:02.375Z,10.5
2022-09-18T06:36:18.607Z,10.5
2022-09-18T06:37:34.860Z,10.5
2022-09-18T06:38:50.101Z,10.6
2022-09-18T06:40:06.348Z,10.6
2022-09-18T06:41:22.580Z,10.6
2022-09-18T06:42:38.831Z,10.7
2022-09-18T06:43:55.058Z,10.7
2022-09-18T06:45:11.299Z,10.8
2022-09-18T06:46:26.567Z,10.8
2022-09-18T06:47:42.813Z,10.8
2022-09-18T06:48:59.045Z,10.8
2022-09-18T06:50:15.278Z,10.8
2022-09-18T06:51:31.521Z,10.8
2022-09-18T06:52:47.759Z,10.8
2022-09-18T06:54:04.007Z,10.9
2022-09-18T06:55:20.250Z,10.9
2022-09-18T06:56:36.492Z,10.9
2022-09-18T06:57:52.723Z,10.9
2022-09-18T06:59:08.960Z,10.9
2022-09-18T07:00:25.196Z,10.9
2022-09-18T07:01:41.445Z,10.8
2022-09-18T07:02:56.702Z,10.9
2022-09-18T07:04:12.937Z,10.9
2022-09-18T07:05:29.175Z,10.9
2022-09-18T07:06:45.413Z,11
2022-09-18T07:08:01.656Z,11
2022-09-18T07:09:17.900Z,11.1
2022-09-18T07:10:34.132Z,11.2
2022-09-18T07:11:50.371Z,11.3
2022-09-18T07:13:06.618Z,11.3
2022-09-18T07:14:22.856Z,11.4
2022-09-18T07:15:39.098Z,11.5
2022-09-18T07:16:55.342Z,11.5
2022-09-18T07:18:11.583Z,11.3
2022-09-18T07:19:26.826Z,11.2
2022-09-18T07:20:43.076Z,11.2
2022-09-18T07:21:59.306Z,11.2
2022-09-18T07:23:15.546Z,11.2
2022-09-18T07:24:31.785Z,11.2
2022-09-18T07:25:48.033Z,11.3
2022-09-18T07:27:04.280Z,11.4
2022-09-18T07:28:20.507Z,11.4
2022-09-18T07:29:36.752Z,11.3
2022-09-18T07:30:52.990Z,11.4
2022-09-18T07:32:09.240Z,11.4
2022-09-18T07:33:25.475Z,11.5
2022-09-18T07:34:41.706Z,11.5
2022-09-18T07:35:56.957Z,11.6
2022-09-18T07:37:13.199Z,11.5
2022-09-18T07:38:29.439Z,11.5
2022-09-18T07:39:45.679Z,11.6
2022-09-18T07:41:01.916Z,11.7
2022-09-18T07:42:18.160Z,11.7
2022-09-18T07:43:34.404Z,11.9
2022-09-18T07:44:50.648Z,12
2022-09-18T07:46:06.874Z,12.1
2022-09-18T07:47:23.116Z,12.2
2022-09-18T07:48:39.361Z,12.2
2022-09-18T07:49:55.599Z,12.3
2022-09-18T07:51:11.831Z,12.2
2022-09-18T07:52:27.092Z,12.2
2022-09-18T07:53:43.329Z,12.1
2022-09-18T07:54:59.569Z,12.1
2022-09-18T07:56:15.805Z,12.1
2022-09-18T07:57:32.052Z,12.1
2022-09-18T07:58:48.289Z,12.3
2022-09-18T08:00:04.533Z,12.4
2022-09-18T08:01:20.764Z,12.5
2022-09-18T08:02:37.007Z,12.4
2022-09-18T08:03:53.246Z,12.5
2022-09-18T08:05:09.481Z,12.3
2022-09-18T08:06:25.720Z,12.5
2022-09-18T08:07:41.977Z,12.5
2022-09-18T08:08:57.218Z,12.5
2022-09-18T08:10:13.457Z,12.5
2022-09-18T08:11:29.704Z,12.5
2022-09-18T08:12:45.943Z,12.5
2022-09-18T08:14:02.174Z,12.4
2022-09-18T08:15:18.421Z,12.3
2022-09-18T08:16:34.654Z,12.2
2022-09-18T08:17:50.898Z,12.2
2022-09-18T08:19:07.131Z,12.2
2022-09-18T08:20:23.369Z,12.1
2022-09-18T08:21:39.615Z,12.2
2022-09-18T08:22:55.860Z,12.3
2022-09-18T08:24:12.082Z,12.3
2022-09-18T08:25:27.338Z,12.3
2022-09-18T08:26:43.585Z,12.3
2022-09-18T08:27:59.823Z,12.3
2022-09-18T08:29:16.059Z,12.4
2022-09-18T08:30:32.302Z,12.5
2022-09-18T08:31:48.531Z,12.4
2022-09-18T08:33:04.782Z,12.4
2022-09-18T08:34:21.015Z,12.4
2022-09-18T08:35:37.253Z,12.4
2022-09-18T08:36:53.489Z,12.3
2022-09-18T08:38:09.724Z,12.4
2022-09-18T08:39:25.973Z,12.5
2022-09-18T08:40:42.217Z,12.7
2022-09-18T08:41:57.467Z,12.9
2022-09-18T08:43:13.714Z,13
2022-09-18T08:44:29.942Z,13
2022-09-18T08:45:46.185Z,13
2022-09-18T08:47:02.412Z,13
2022-09-18T08:48:18.658Z,13.1
2022-09-18T08:49:34.890Z,13.1
2022-09-18T08:50:51.143Z,13.1
2022-09-18T08:52:07.373Z,13.1
2022-09-18T08:53:23.616Z,13
2022-09-18T08:54:39.856Z,13
2022-09-18T08:55:56.097Z,13.1
2022-09-18T08:57:12.329Z,13.1
2022-09-18T08:58:27.594Z,13
2022-09-18T08:59:43.821Z,13
2022-09-18T09:01:00.056Z,12.9
2022-09-18T09:02:16.298Z,12.9
2022-09-18T09:03:32.545Z,12.9
2022-09-18T09:04:48.778Z,13
2022-09-18T09:06:05.017Z,13.1
2022-09-18T09:07:21.257Z,13.2
2022-09-18T09:08:37.505Z,13.4
2022-09-18T09:09:53.739Z,13.4
2022-09-18T09:11:09.974Z,13.3
2022-09-18T09:12:26.219Z,13.3
2022-09-18T09:13:42.458Z,13.2
2022-09-18T09:14:57.705Z,13.2
2022-09-18T09:16:13.946Z,13.2
2022-09-18T09:17:30.181Z,13.1
2022-09-18T09:18:46.422Z,13
2022-09-18T09:20:02.660Z,13.1
2022-09-18T09:21:18.901Z,13.1
2022-09-18T09:22:35.155Z,13.2
2022-09-18T09:23:51.377Z,13.3
2022-09-18T09:25:07.615Z,13.3
2022-09-18T09:26:23.859Z,13.3
2022-09-18T09:27:40.094Z,13.2
2022-09-18T09:28:56.352Z,13.2
2022-09-18T09:30:12.578Z,13.2
2022-09-18T09:31:27.846Z,13.2
2022-09-18T09:32:44.075Z,13.3
2022-09-18T09:34:00.307Z,13.2
2022-09-18T09:35:16.557Z,13.3
2022-09-18T09:36:32.804Z,13.3
2022-09-18T09:37:49.028Z,13.4
2022-09-18T09:39:05.273Z,13.4
2022-09-18T09:40:21.505Z,13.5
2022-09-18T09:41:37.743Z,13.5
2022-09-18T09:42:53.986Z,13.4
2022-09-18T09:44:10.219Z,13.4
2022-09-18T09:45:26.460Z,13.6
2022-09-18T09:46:42.708Z,13.8
2022-09-18T09:47:57.967Z,13.8
2022-09-18T09:49:14.198Z,13.8
2022-09-18T09:50:30.437Z,13.6
2022-09-18T09:51:46.683Z,13.6
2022-09-18T09:53:02.921Z,13.5
2022-09-18T09:54:19.149Z,13.5
2022-09-18T09:55:35.392Z,13.8
2022-09-18T09:56:51.626Z,13.8
2022-09-18T09:58:07.871Z,13.9
2022-09-18T09:59:24.111Z,13.8
2022-09-18T10:00:40.343Z,14
2022-09-18T10:01:56.596Z,14.3
2022-09-18T10:03:12.824Z,14.2
2022-09-18T10:04:28.074Z,14.2
2022-09-18T10:05:44.316Z,14.4
2022-09-18T10:07:00.551Z,14.7
2022-09-18T10:08:16.791Z,14.9
2022-09-18T10:09:33.032Z,15.3
2022-09-18T10:10:49.268Z,15.5
2022-09-18T10:12:05.503Z,15.7
2022-09-18T10:13:21.745Z,15.7
2022-09-18T10:14:37.979Z,15.8
2022-09-18T10:15:54.228Z,16
2022-09-18T10:17:10.465Z,15.9
2022-09-18T10:18:26.703Z,16
2022-09-18T10:19:42.943Z,15.8
2022-09-18T10:20:58.200Z,15.8
2022-09-18T10:22:14.440Z,16
2022-09-18T10:23:30.677Z,15.9
2022-09-18T10:24:46.922Z,15.6
2022-09-18T10:26:03.152Z,15.4
2022-09-18T10:27:19.394Z,15.3
2022-09-18T10:28:35.626Z,15.3
2022-09-18T10:29:51.860Z,15
2022-09-18T10:31:08.096Z,14.8
2022-09-18T10:32:24.347Z,14.6
2022-09-18T10:33:40.574Z,14.4
2022-09-18T10:34:56.815Z,14.5
2022-09-18T10:36:13.052Z,14.6
2022-09-18T10:37:28.318Z,14.5
2022-09-18T10:38:44.542Z,14.5
2022-09-18T10:40:00.791Z,14.3
2022-09-18T10:41:17.024Z,14.3
2022-09-18T10:42:33.267Z,14.2
2022-09-18T10:43:49.499Z,14.2
2022-09-18T10:45:05.733Z,14.1
2022-09-18T10:46:21.973Z,14.3
2022-09-18T10:47:38.214Z,14.9
2022-09-18T10:48:54.463Z,15.2
2022-09-18T10:50:10.687Z,15.4
2022-09-18T10:51:26.927Z,15.2
2022-09-18T10:52:43.165Z,15.4
2022-09-18T10:53:58.436Z,15.3
2022-09-18T10:55:14.669Z,15.3
2022-09-18T10:56:30.896Z,15.6
2022-09-18T10:57:47.151Z,15.8
2022-09-18T10:59:03.372Z,16.2
2022-09-18T11:00:19.626Z,16.6
2022-09-18T11:01:34.875Z,16.2
2022-09-18T11:02:51.117Z,15.8
2022-09-18T11:04:07.364Z,15.6
2022-09-18T11:05:23.600Z,15.3
2022-09-18T11:06:39.825Z,15.3
2022-09-18T11:07:56.079Z,15.5
2022-09-18T11:09:12.308Z,15.8
2022-09-18T11:10:28.554Z,16.1
2022-09-18T11:11:44.788Z,16.3
2022-09-18T11:13:01.031Z,16.2
2022-09-18T11:14:17.257Z,15.9
2022-09-18T11:15:33.496Z,15.8
2022-09-18T11:16:49.746Z,15.8
2022-09-18T11:18:04.999Z,16.1
2022-09-18T11:19:21.229Z,16.3
2022-09-18T11:20:37.468Z,16.2
2022-09-18T11:23:09.939Z,15.9
2022-09-18T11:24:26.182Z,16
2022-09-18T11:25:42.419Z,15.6
2022-09-18T11:26:58.659Z,15.8
2022-09-18T11:28:14.893Z,15.3
2022-09-18T11:29:31.145Z,15.1
2022-09-18T11:30:47.373Z,15
2022-09-18T11:32:03.622Z,14.4
2022-09-18T11:33:19.848Z,14.3
2022-09-18T11:34:35.116Z,14.3
2022-09-18T11:35:51.339Z,14.4
2022-09-18T11:37:07.597Z,13.9
2022-09-18T11:38:23.829Z,13.6
2022-09-18T11:39:40.070Z,13.8
2022-09-18T11:40:56.302Z,14
2022-09-18T11:42:12.535Z,14.1
2022-09-18T11:43:28.770Z,14.3
2022-09-18T11:44:45.021Z,14.7
2022-09-18T11:46:01.258Z,14.6
2022-09-18T11:47:17.494Z,14.5
2022-09-18T11:48:33.744Z,14.5
2022-09-18T11:49:49.971Z,14.5
2022-09-18T11:51:05.217Z,14.6
2022-09-18T11:52:21.460Z,14.4
2022-09-18T11:53:37.708Z,14.6
2022-09-18T11:54:53.939Z,14.8
2022-09-18T11:56:10.177Z,14.6
2022-09-18T11:57:26.411Z,14.7
2022-09-18T11:58:42.665Z,14.7
2022-09-18T11:59:58.900Z,14.5
2022-09-18T12:01:15.130Z,14.5
2022-09-18T12:02:31.363Z,14.8
2022-09-18T12:03:47.613Z,14.5
2022-09-18T12:05:03.843Z,14.5
2022-09-18T12:06:20.087Z,14.2
2022-09-18T12:08:51.579Z,14.2
2022-09-18T12:10:07.814Z,14.2
2022-09-18T12:11:24.048Z,14.2
2022-09-18T12:12:40.298Z,14.4
2022-09-18T12:13:56.529Z,14.6
2022-09-18T12:15:12.768Z,14.7
2022-09-18T12:16:29.012Z,14.8
2022-09-18T12:17:45.248Z,14.7
2022-09-18T12:19:01.489Z,14.5
2022-09-18T12:20:17.727Z,14.3
2022-09-18T12:21:33.960Z,14
2022-09-18T12:22:50.211Z,14
2022-09-18T12:24:05.458Z,14.1
2022-09-18T12:25:21.691Z,14.2
2022-09-18T12:26:37.932Z,14.1
2022-09-18T12:27:54.169Z,14
2022-09-18T12:29:10.422Z,14
2022-09-18T12:30:26.650Z,13.8
2022-09-18T12:31:42.890Z,13.7
2022-09-18T12:32:59.121Z,13.6
2022-09-18T12:34:15.358Z,13.5
2022-09-18T12:35:31.605Z,13.4
2022-09-18T12:36:47.846Z,13.4
2022-09-18T12:38:04.076Z,13.4
2022-09-18T12:39:20.309Z,13.4
2022-09-18T12:40:35.564Z,13.3
2022-09-18T12:41:51.806Z,13.3
2022-09-18T12:43:08.047Z,13.3
2022-09-18T12:44:24.290Z,13.2
2022-09-18T12:45:40.530Z,13.2
2022-09-18T12:46:56.760Z,13.2
2022-09-18T12:48:12.998Z,13.2
2022-09-18T12:49:29.245Z,13.2
2022-09-18T12:50:45.495Z,13.2
2022-09-18T12:52:01.717Z,13.2
2022-09-18T12:53:17.959Z,13.1
2022-09-18T12:54:34.211Z,13.1
2022-09-18T12:55:50.437Z,13
2022-09-18T12:57:05.684Z,13
2022-09-18T12:58:21.932Z,13
2022-09-18T12:59:38.160Z,13
2022-09-18T13:00:54.408Z,13
2022-09-18T13:02:10.649Z,12.9
2022-09-18T13:03:26.887Z,12.8
2022-09-18T13:04:43.124Z,12.7
2022-09-18T13:05:59.358Z,12.6
2022-09-18T13:07:15.608Z,12.6
2022-09-18T13:08:31.845Z,12.6
2022-09-18T13:09:48.070Z,12.5
2022-09-18T13:11:04.315Z,12.3
2022-09-18T13:12:20.551Z,12
2022-09-18T13:13:35.809Z,11.9
2022-09-18T13:14:52.046Z,11.7
2022-09-18T13:16:08.283Z,11.7
2022-09-18T13:17:24.526Z,11.5
2022-09-18T13:18:40.757Z,11.3
2022-09-18T13:19:56.997Z,11.1
2022-09-18T13:21:13.250Z,11
2022-09-18T13:22:29.481Z,10.8
2022-09-18T13:23:45.720Z,10.8
2022-09-18T13:25:01.974Z,10.8
2022-09-18T13:26:18.209Z,10.8
2022-09-18T13:27:34.448Z,10.8
2022-09-18T13:28:50.669Z,10.9
2022-09-18T13:30:05.930Z,10.9
2022-09-18T13:31:22.171Z,10.9
2022-09-18T13:32:38.419Z,10.9
2022-09-18T13:33:54.652Z,10.9
2022-09-18T13:35:10.887Z,10.9
2022-09-18T13:36:27.123Z,10.9
2022-09-18T13:37:43.365Z,10.9
2022-09-18T13:38:59.614Z,10.8
2022-09-18T13:40:15.855Z,10.8
2022-09-18T13:41:32.092Z,10.8
2022-09-18T13:44:04.565Z,10.8
2022-09-18T13:45:20.798Z,10.8
2022-09-18T13:46:36.055Z,10.9
2022-09-18T13:47:52.297Z,10.8
2022-09-18T13:49:08.529Z,10.9
2022-09-18T13:50:24.780Z,10.9
2022-09-18T13:51:41.019Z,10.9
2022-09-18T13:52:57.250Z,10.9
2022-09-18T13:54:13.488Z,11
2022-09-18T13:55:29.734Z,11
2022-09-18T13:56:45.961Z,11
2022-09-18T13:58:02.208Z,11
2022-09-18T13:59:18.451Z,10.9
2022-09-18T14:00:34.689Z,10.9
2022-09-18T14:01:50.936Z,10.9
2022-09-18T14:03:06.184Z,10.8
2022-09-18T14:04:22.414Z,10.8
2022-09-18T14:05:38.666Z,10.9
2022-09-18T14:06:54.896Z,10.9
2022-09-18T14:08:11.137Z,10.9
2022-09-18T14:09:27.371Z,10.9
2022-09-18T14:10:43.624Z,10.9
2022-09-18T14:11:59.845Z,11.1
2022-09-18T14:13:16.089Z,11
2022-09-18T14:14:32.331Z,11.1
2022-09-18T14:15:48.585Z,11.1
2022-09-18T14:17:04.806Z,11.1
2022-09-18T14:18:21.060Z,11.1
2022-09-18T14:19:36.298Z,11.1
2022-09-18T14:20:52.544Z,11.2
2022-09-18T14:22:08.788Z,11.2
2022-09-18T14:23:25.021Z,11.2
2022-09-18T14:24:41.269Z,11.1
2022-09-18T14:25:57.497Z,11.1
2022-09-18T14:27:13.744Z,11.1
2022-09-18T14:28:29.979Z,11.1
2022-09-18T14:29:46.227Z,11.1
2022-09-18T14:31:02.463Z,11.1
2022-09-18T14:32:18.709Z,11
2022-09-18T14:33:34.936Z,11
2022-09-18T14:34:51.181Z,11
2022-09-18T14:36:06.431Z,11
2022-09-18T14:37:22.682Z,11.1
2022-09-18T14:38:38.912Z,11.1
2022-09-18T14:39:55.158Z,11.1
2022-09-18T14:41:11.389Z,11.1
2022-09-18T14:42:27.639Z,11.1
2022-09-18T14:43:43.879Z,11.1
2022-09-18T14:45:00.120Z,11.1
2022-09-18T14:46:16.352Z,11.1
2022-09-18T14:47:32.592Z,11.1
2022-09-18T14:48:48.834Z,11.1
2022-09-18T14:50:05.073Z,11.2
2022-09-18T14:51:21.328Z,11.2
2022-09-18T14:52:36.568Z,11.1
2022-09-18T14:53:52.814Z,11.1
2022-09-18T14:55:09.040Z,11.1
2022-09-18T14:56:25.282Z,11.2
2022-09-18T14:57:41.521Z,11.1
2022-09-18T14:58:57.771Z,11.1
2022-09-18T15:00:14.002Z,11.1
2022-09-18T15:01:30.245Z,11.2
2022-09-18T15:02:46.481Z,11
2022-09-18T15:04:02.719Z,11.1
2022-09-18T15:05:18.974Z,11.1
2022-09-18T15:06:35.202Z,11.1
2022-09-18T15:07:51.443Z,11.1
2022-09-18T15:09:06.695Z,11.1
2022-09-18T15:10:22.942Z,11.1
2022-09-18T15:11:39.175Z,11.1
2022-09-18T15:12:55.409Z,11.1
2022-09-18T15:14:11.647Z,11.1
2022-09-18T15:15:27.893Z,11.1
2022-09-18T15:16:43.157Z,11.1
2022-09-18T15:17:59.397Z,11.1
2022-09-18T15:19:15.633Z,11
2022-09-18T15:20:31.873Z,11.1
2022-09-18T15:21:48.116Z,11
2022-09-18T15:23:04.345Z,11
2022-09-18T15:24:20.589Z,11.1
2022-09-18T15:25:36.837Z,11.1
2022-09-18T15:26:53.062Z,11
2022-09-18T15:28:09.301Z,11.1
2022-09-18T15:29:25.542Z,11.1
2022-09-18T15:30:41.785Z,11.1
2022-09-18T15:31:58.037Z,11.1
2022-09-18T15:33:13.275Z,11.1
2022-09-18T15:34:29.516Z,11
2022-09-18T15:35:45.757Z,11
2022-09-18T15:37:01.994Z,10.9
2022-09-18T15:38:18.232Z,11
2022-09-18T15:39:34.493Z,11
2022-09-18T15:40:50.720Z,10.9
2022-09-18T15:42:06.966Z,11
2022-09-18T15:43:23.197Z,11
2022-09-18T15:44:39.429Z,11
2022-09-18T15:45:55.670Z,11
2022-09-18T15:47:11.915Z,11
2022-09-18T15:48:28.149Z,11
2022-09-18T15:49:43.417Z,10.9
2022-09-18T15:50:59.645Z,10.9
2022-09-18T15:52:15.892Z,10.9
2022-09-18T15:53:32.122Z,10.9
2022-09-18T15:54:48.370Z,10.9
2022-09-18T15:56:04.602Z,10.8
2022-09-18T15:57:20.833Z,10.8
2022-09-18T15:58:37.092Z,10.8
2022-09-18T15:59:53.331Z,10.8
2022-09-18T16:01:09.566Z,10.8
2022-09-18T16:02:25.813Z,10.8
2022-09-18T16:03:42.039Z,10.8
2022-09-18T16:04:58.271Z,10.8
2022-09-18T16:06:13.537Z,10.8
2022-09-18T16:07:29.780Z,10.8
2022-09-18T16:08:46.011Z,10.8
2022-09-18T16:10:02.255Z,10.8
2022-09-18T16:11:18.485Z,10.8
2022-09-18T16:12:34.733Z,10.8
2022-09-18T16:13:50.977Z,10.7
2022-09-18T16:15:07.214Z,10.7
2022-09-18T16:16:23.445Z,10.8
2022-09-18T16:17:39.680Z,10.7
2022-09-18T16:18:55.934Z,10.7
2022-09-18T16:20:12.175Z,10.8
2022-09-18T16:21:28.000Z,10.7
2022-09-18T16:22:43.662Z,10.7
2022-09-18T16:23:59.901Z,10.8
2022-09-18T16:25:16.138Z,10.7
2022-09-18T16:26:32.383Z,10.7
2022-09-18T16:27:48.631Z,10.7
2022-09-18T16:29:04.861Z,10.7
2022-09-18T16:30:21.102Z,10.7
2022-09-18T16:31:37.338Z,10.7
2022-09-18T16:32:53.579Z,10.7
2022-09-18T16:34:09.812Z,10.7
2022-09-18T16:35:26.057Z,10.7
2022-09-18T16:36:42.297Z,10.7
2022-09-18T16:37:58.532Z,10.6
2022-09-18T16:39:13.799Z,10.6
2022-09-18T16:40:30.032Z,10.6
2022-09-18T16:41:46.271Z,10.5
2022-09-18T16:43:02.513Z,10.4
2022-09-18T16:44:18.747Z,10.4
2022-09-18T16:45:34.988Z,10.4
2022-09-18T16:46:51.241Z,10.3
2022-09-18T16:48:07.481Z,10.3
2022-09-18T16:49:23.708Z,10.3
2022-09-18T16:50:39.954Z,10.3
2022-09-18T16:51:56.187Z,10.3
2022-09-18T16:53:12.443Z,10.3
2022-09-18T16:54:28.668Z,10.3
2022-09-18T16:55:43.932Z,10.3
2022-09-18T16:57:00.178Z,10.2
2022-09-18T16:58:16.411Z,10.3
2022-09-18T16:59:32.650Z,10.2
2022-09-18T17:00:48.894Z,10.2
2022-09-18T17:02:05.144Z,10.2
2022-09-18T17:03:21.380Z,10.2
2022-09-18T17:04:37.603Z,10.2
2022-09-18T17:05:53.842Z,10.2
2022-09-18T17:07:10.086Z,10.1
2022-09-18T17:08:26.336Z,10.1
2022-09-18T17:09:42.580Z,10.1
2022-09-18T17:10:58.809Z,10.1
2022-09-18T17:12:14.061Z,10.1
2022-09-18T17:13:30.303Z,10.1
2022-09-18T17:14:46.554Z,10.1
2022-09-18T17:16:02.783Z,10